Time;durP1;ratioP1;P1;durP2;ratioP2;P2;SDS_P1;SDS_P2;PMS_P1;PMS_P2;Temp;Humidity;BMP_temperature;BMP_pressure;BME280_temperature;BME280_humidity;BME280_pressure;Samples;Min_cycle;Max_cycle;Signal;HPM_P1;HPM_P2
2022/07/21 00:00:46;;;;;;;;;4.67;4.00;;;;;23.66;100.00;101691.78;5000602;28;59881;-74
2022/07/21 00:03:11;;;;;;;;;4.33;3.00;;;;;23.64;100.00;101682.84;5018212;28;57345;-74
2022/07/21 00:05:36;;;;;;;;;2.00;2.00;;;;;23.57;100.00;101678.53;5017994;28;66001;-74
2022/07/21 00:08:03;;;;;;;;;3.00;3.00;;;;;23.59;100.00;101687.44;5018917;28;45342;-74
2022/07/21 00:10:28;;;;;;;;;4.67;4.00;;;;;23.55;100.00;101675.00;5001104;28;45352;-74
2022/07/21 00:12:55;;;;;;;;;4.00;4.00;;;;;23.55;100.00;101672.31;5000291;28;47742;-74
2022/07/21 00:15:22;;;;;;;;;2.67;2.67;;;;;23.55;100.00;101669.63;5018166;28;45436;-75
2022/07/21 00:17:48;;;;;;;;;3.00;3.00;;;;;23.59;100.00;101676.66;5018747;28;45438;-74
2022/07/21 00:20:15;;;;;;;;;3.00;3.00;;;;;23.57;100.00;101675.84;5000490;28;55900;-74
2022/07/21 00:22:42;;;;;;;;;3.00;3.00;;;;;23.57;100.00;101679.41;5018362;28;46304;-74
2022/07/21 00:25:08;;;;;;;;;3.00;3.00;;;;;23.55;100.00;101680.41;5018443;28;45310;-74
2022/07/21 00:27:34;;;;;;;;;3.00;3.00;;;;;23.55;100.00;101675.91;5018501;28;45396;-74
2022/07/21 00:30:00;;;;;;;;;5.00;3.33;;;;;23.52;100.00;101681.34;5000861;28;45317;-74
2022/07/21 00:32:26;;;;;;;;;3.00;3.00;;;;;23.47;100.00;101672.53;5018254;28;46077;-74
2022/07/21 00:34:51;;;;;;;;;4.00;4.00;;;;;23.41;100.00;101670.88;5018283;28;45326;-74
2022/07/21 00:37:16;;;;;;;;;2.00;2.00;;;;;23.39;100.00;101677.28;5017533;28;61907;-74
2022/07/21 00:39:42;;;;;;;;;3.00;3.00;;;;;23.35;100.00;101670.19;5018561;28;45278;-76
2022/07/21 00:42:07;;;;;;;;;3.00;3.00;;;;;23.30;100.00;101672.13;5017397;28;58700;-74
2022/07/21 00:44:32;;;;;;;;;3.00;3.00;;;;;23.26;100.00;101674.03;4999703;28;64028;-74
2022/07/21 00:46:59;;;;;;;;;5.67;3.00;;;;;23.24;100.00;101678.56;5017732;28;45399;-74
2022/07/21 00:49:24;;;;;;;;;4.00;3.00;;;;;23.21;100.00;101673.25;5011483;28;45600;-75
2022/07/21 00:51:50;;;;;;;;;3.33;3.33;;;;;23.17;100.00;101671.56;5017740;28;46897;-75
2022/07/21 00:54:17;;;;;;;;;5.00;3.00;;;;;23.14;100.00;101664.47;5000017;28;45330;-74
2022/07/21 00:56:44;;;;;;;;;4.00;3.00;;;;;23.13;100.00;101669.91;5016494;28;45277;-74
2022/07/21 00:59:10;;;;;;;;;5.00;5.00;;;;;23.10;100.00;101668.16;5018193;28;45400;-74
2022/07/21 01:01:35;;;;;;;;;6.00;4.33;;;;;23.06;100.00;101665.59;5000065;28;46449;-74
2022/07/21 01:04:01;;;;;;;;;4.00;4.00;;;;;23.03;100.00;101663.00;5017220;28;59884;-74
2022/07/21 01:06:26;;;;;;;;;4.00;4.00;;;;;23.02;100.00;101669.31;5016943;28;62326;-74
2022/07/21 01:08:52;;;;;;;;;6.00;4.00;;;;;22.96;100.00;101665.00;5017999;28;45646;-74
2022/07/21 01:11:20;;;;;;;;;3.33;3.33;;;;;22.95;100.00;101671.28;5017221;28;45847;-74
2022/07/21 01:13:45;;;;;;;;;5.33;3.67;;;;;22.92;100.00;101660.59;5017775;28;45266;-74
2022/07/21 01:16:11;;;;;;;;;4.00;4.00;;;;;22.89;100.00;101677.72;4999756;28;45540;-74
2022/07/21 01:18:37;;;;;;;;;4.00;4.00;;;;;22.85;100.00;101673.31;4996861;28;45196;-74
2022/07/21 01:21:25;;;;;;;;;4.67;3.00;;;;;22.82;100.00;101677.91;4996522;28;45952;-74
2022/07/21 01:23:50;;;;;;;;;4.00;4.00;;;;;22.78;100.00;101676.22;5013160;28;45191;-74
2022/07/21 01:26:15;;;;;;;;;3.00;3.00;;;;;22.75;100.00;101671.81;5017282;28;60789;-73
2022/07/21 01:28:41;;;;;;;;;7.00;6.00;;;;;22.77;100.00;101674.44;5017116;28;55424;-74
2022/07/21 01:31:06;;;;;;;;;9.67;5.33;;;;;22.77;100.00;101672.63;4999613;28;51686;-74
2022/07/21 01:33:31;;;;;;;;;3.00;3.00;;;;;22.75;100.00;101664.59;5017164;28;45314;-74
2022/07/21 01:35:57;;;;;;;;;7.00;4.33;;;;;22.73;100.00;101665.56;5017267;28;54164;-74
2022/07/21 01:43:50;;;;;;;;;5.00;4.00;;;;;22.70;100.00;101653.06;5017392;28;45400;-74
2022/07/21 01:46:15;;;;;;;;;6.33;4.00;;;;;;;;5015791;28;56271;-73
2022/07/21 01:48:42;;;;;;;;;6.00;3.33;;;;;22.66;100.00;101650.50;5009011;28;45464;-74
2022/07/21 01:51:08;;;;;;;;;6.00;3.00;;;;;22.64;100.00;101646.97;5015445;28;46098;-73
2022/07/21 01:53:33;;;;;;;;;5.00;4.00;;;;;22.65;100.00;101667.56;5015852;28;62394;-73
2022/07/21 01:55:58;;;;;;;;;5.00;5.00;;;;;22.62;100.00;101665.84;5016406;28;58680;-73
2022/07/21 01:58:24;;;;;;;;;6.67;5.67;;;;;22.59;100.00;101660.53;5016954;28;45289;-74
2022/07/21 02:00:49;;;;;;;;;7.00;5.00;;;;;22.57;100.00;101670.44;5017140;28;46431;-73
2022/07/21 02:03:14;;;;;;;;;4.67;4.67;;;;;22.57;100.00;101675.81;5016201;28;64306;-74
2022/07/21 02:05:40;;;;;;;;;4.00;4.00;;;;;22.56;100.00;101682.13;4982390;28;53564;-73
2022/07/21 02:08:05;;;;;;;;;6.00;4.00;;;;;22.52;100.00;101672.38;5016451;28;50150;-73
2022/07/21 02:10:30;;;;;;;;;5.00;3.67;;;;;22.49;100.00;101672.47;5016452;28;56295;-74
2022/07/21 02:12:55;;;;;;;;;4.00;4.00;;;;;22.50;100.00;101674.22;5015623;28;64002;-73
2022/07/21 02:15:21;;;;;;;;;6.00;4.00;;;;;22.52;100.00;101674.19;5015892;28;60677;-73
2022/07/21 02:17:46;;;;;;;;;4.33;4.33;;;;;22.50;100.00;101666.16;5016151;28;56578;-73
2022/07/21 02:20:11;;;;;;;;;4.00;4.00;;;;;22.51;100.00;101670.59;5016378;28;60989;-74
2022/07/21 02:22:37;;;;;;;;;6.00;6.00;;;;;22.51;100.00;101681.38;5016420;28;53404;-73
2022/07/21 02:25:02;;;;;;;;;4.00;4.00;;;;;22.47;100.00;101669.78;5017012;28;45201;-73
2022/07/21 02:27:28;;;;;;;;;5.00;5.00;;;;;22.46;100.00;101672.53;5016735;28;45347;-73
2022/07/21 02:29:53;;;;;;;;;5.00;5.00;;;;;22.47;100.00;101676.97;5016755;28;46635;-73
2022/07/21 02:32:19;;;;;;;;;4.33;4.33;;;;;22.46;100.00;101677.91;5015996;28;61400;-73
2022/07/21 02:34:44;;;;;;;;;5.00;5.00;;;;;22.43;100.00;101680.69;4998885;28;45211;-74
2022/07/21 02:37:09;;;;;;;;;8.67;6.00;;;;;22.40;100.00;101683.44;5016427;28;45198;-74
2022/07/21 02:39:35;;;;;;;;;5.00;5.00;;;;;22.39;100.00;101687.94;5016209;28;56520;-72
2022/07/21 02:42:00;;;;;;;;;6.00;4.67;;;;;22.40;100.00;101691.53;5016140;28;45400;-75
2022/07/21 02:44:25;;;;;;;;;6.00;5.67;;;;;22.38;100.00;101686.19;5016625;28;45285;-74
2022/07/21 02:46:51;;;;;;;;;7.33;5.67;;;;;22.42;100.00;101689.66;5015476;28;55152;-72
2022/07/21 02:49:16;;;;;;;;;6.00;6.00;;;;;22.42;100.00;101692.34;5009717;28;46384;-73
2022/07/21 02:51:41;;;;;;;;;5.33;5.33;;;;;22.42;100.00;101698.63;5015674;28;51892;-73
2022/07/21 02:54:07;;;;;;;;;9.67;8.00;;;;;22.43;100.00;101696.84;5016233;28;45494;-73
2022/07/21 02:56:32;;;;;;;;;7.67;7.67;;;;;22.42;100.00;101701.31;5015983;28;45292;-73
2022/07/21 02:58:57;;;;;;;;;8.00;7.00;;;;;22.38;100.00;101705.03;5018173;28;46406;-73
2022/07/21 03:01:23;;;;;;;;;6.67;6.00;;;;;22.30;100.00;101698.94;5019017;28;61481;-73
2022/07/21 03:03:48;;;;;;;;;8.00;5.33;;;;;22.29;100.00;101698.97;5019515;28;58699;-73
2022/07/21 03:06:13;;;;;;;;;5.67;5.67;;;;;22.27;100.00;101701.72;5019847;28;45254;-73
2022/07/21 03:08:39;;;;;;;;;7.67;7.33;;;;;22.22;100.00;101698.25;5018764;28;63588;-76
2022/07/21 03:11:05;;;;;;;;;11.00;9.33;;;;;22.19;100.00;101703.69;5018787;28;62074;-73
2022/07/21 03:13:30;;;;;;;;;11.00;11.00;;;;;22.11;100.00;101705.69;5019307;28;45313;-73
2022/07/21 03:15:55;;;;;;;;;10.67;10.67;;;;;22.05;100.00;101700.38;5019468;28;45374;-73
2022/07/21 03:18:21;;;;;;;;;14.33;11.67;;;;;21.94;100.00;101703.31;5019345;28;46404;-73
2022/07/21 03:20:46;;;;;;;;;16.33;12.67;;;;;21.92;100.00;101708.72;5019311;28;45272;-73
2022/07/21 03:23:12;;;;;;;;;16.33;13.33;;;;;21.87;100.00;101704.38;5001760;28;45309;-72
2022/07/21 03:25:38;;;;;;;;;12.00;10.33;;;;;21.82;100.00;101709.84;5001695;28;45298;-72
2022/07/21 03:28:03;;;;;;;;;14.00;11.67;;;;;21.75;100.00;101708.22;5013564;28;46296;-74
2022/07/21 03:30:29;;;;;;;;;12.33;12.33;;;;;21.71;100.00;101718.13;4997921;28;45584;-73
2022/07/21 03:32:55;;;;;;;;;13.33;11.67;;;;;21.74;100.00;101719.00;4998701;28;45479;-74
2022/07/21 03:35:21;;;;;;;;;12.00;12.00;;;;;21.72;100.00;101719.03;5018102;28;45378;-73
2022/07/21 03:37:57;;;;;;;;;15.00;14.67;;;;;21.74;100.00;101722.59;4999519;28;45633;-72
2022/07/21 03:40:25;;;;;;;;;11.00;9.67;;;;;21.71;100.00;101722.63;5015092;28;45424;-72
2022/07/21 03:42:52;;;;;;;;;13.00;11.00;;;;;21.71;100.00;101722.63;5017988;28;45368;-73
2022/07/21 03:45:17;;;;;;;;;10.33;10.33;;;;;21.66;100.00;101717.34;5018257;28;45505;-73
2022/07/21 03:47:43;;;;;;;;;11.33;10.00;;;;;21.64;100.00;101718.31;5018294;28;46673;-74
2022/07/21 03:50:11;;;;;;;;;11.00;10.67;;;;;21.65;100.00;101726.34;5011971;28;45413;-73
2022/07/21 03:52:37;;;;;;;;;10.33;10.33;;;;;21.68;100.00;101722.72;5018738;28;45453;-74
2022/07/21 03:55:08;;;;;;;;;12.67;12.67;;;;;21.72;100.00;101729.78;5017579;28;56517;-73
2022/07/21 03:57:37;;;;;;;;;17.00;14.67;;;;;21.70;100.00;101726.25;5018097;28;45370;-73
2022/07/21 04:00:10;;;;;;;;;13.00;13.00;;;;;21.75;100.00;101718.97;5018622;28;45357;-73
2022/07/21 04:02:35;;;;;;;;;19.33;17.00;;;;;21.78;100.00;101726.94;5000848;28;45411;-73
2022/07/21 04:05:01;;;;;;;;;15.67;15.67;;;;;21.75;100.00;101724.34;4999849;28;57084;-72
2022/07/21 04:07:26;;;;;;;;;18.33;14.00;;;;;21.76;100.00;101723.41;5013281;28;46519;-74
2022/07/21 04:09:52;;;;;;;;;15.33;15.33;;;;;21.76;100.00;101734.19;5006022;28;45435;-72
2022/07/21 04:12:17;;;;;;;;;13.33;13.33;;;;;21.76;100.00;101728.78;5014390;28;56888;-73
2022/07/21 04:14:43;;;;;;;;;14.33;14.33;;;;;21.80;100.00;101738.56;5010000;28;45638;-72
2022/07/21 04:17:08;;;;;;;;;15.33;12.00;;;;;21.81;100.00;101734.97;5015709;28;67298;-72
2022/07/21 04:19:33;;;;;;;;;17.00;15.33;;;;;21.81;100.00;101734.97;5017804;28;60410;-72
2022/07/21 04:21:58;;;;;;;;;19.00;16.67;;;;;21.82;100.00;101733.16;5018161;28;45563;-73
2022/07/21 04:24:24;;;;;;;;;18.67;16.33;;;;;21.80;100.00;101737.69;5017138;28;52677;-73
2022/07/21 04:26:49;;;;;;;;;12.67;12.67;;;;;21.81;100.00;101740.34;5017056;28;66758;-74
2022/07/21 04:29:15;;;;;;;;;15.33;14.00;;;;;21.80;100.00;101735.88;5011864;28;45352;-73
2022/07/21 04:31:40;;;;;;;;;18.00;17.67;;;;;21.81;100.00;101744.84;5004195;28;49094;-73
2022/07/21 04:34:05;;;;;;;;;14.67;13.33;;;;;21.84;100.00;101750.13;5010143;28;45498;-76
2022/07/21 04:36:31;;;;;;;;;20.33;16.33;;;;;21.83;100.00;101743.88;5011408;28;62323;-74
2022/07/21 04:38:56;;;;;;;;;17.33;17.33;;;;;21.90;100.00;101747.34;5004971;28;45443;-73
2022/07/21 04:41:21;;;;;;;;;16.00;15.00;;;;;21.95;100.00;101745.44;5015256;28;54985;-72
2022/07/21 04:43:47;;;;;;;;;18.67;18.00;;;;;21.97;100.00;101738.22;5014367;28;46237;-72
2022/07/21 04:46:12;;;;;;;;;20.33;15.67;;;;;22.02;100.00;101751.56;5011058;28;61739;-72
2022/07/21 04:48:37;;;;;;;;;17.33;16.00;;;;;22.04;100.00;101747.91;5012068;28;45407;-71
2022/07/21 04:51:03;;;;;;;;;17.67;15.33;;;;;22.04;100.00;101753.28;5013182;28;45463;-72
2022/07/21 04:53:28;;;;;;;;;16.00;16.00;;;;;22.04;100.00;101745.22;5014669;28;58715;-72
2022/07/21 04:55:53;;;;;;;;;21.33;18.67;;;;;22.07;100.00;101749.66;5015454;28;61677;-72
2022/07/21 04:58:19;;;;;;;;;18.33;16.67;;;;;22.07;100.00;101750.53;5015783;28;56639;-73
2022/07/21 05:00:44;;;;;;;;;21.33;19.67;;;;;22.06;100.00;101755.97;4997576;28;45452;-73
2022/07/21 05:03:10;;;;;;;;;24.00;16.67;;;;;22.08;100.00;101752.31;5014456;28;51199;-72
2022/07/21 05:05:36;;;;;;;;;20.00;17.33;;;;;22.08;100.00;101755.00;5015147;28;46831;-72
2022/07/21 05:08:01;;;;;;;;;20.50;17.50;;;;;22.14;100.00;101765.66;5014984;28;60217;-70
2022/07/21 05:10:26;;;;;;;;;25.33;19.67;;;;;22.17;100.00;101760.22;5015732;28;45959;-71
2022/07/21 05:12:52;;;;;;;;;18.67;16.33;;;;;22.19;100.00;101754.78;4996865;28;56698;-71
2022/07/21 05:15:17;;;;;;;;;17.33;15.67;;;;;22.24;100.00;101763.66;5014765;28;55409;-72
2022/07/21 05:17:43;;;;;;;;;17.33;17.33;;;;;22.25;100.00;101760.03;5017374;28;45535;-71
2022/07/21 05:20:09;;;;;;;;;17.33;17.33;;;;;22.31;100.00;101767.06;5017492;28;45420;-71
2022/07/21 05:22:34;;;;;;;;;16.00;16.00;;;;;22.33;100.00;101762.56;5017028;28;45472;-72
2022/07/21 05:25:00;;;;;;;;;18.33;17.33;;;;;22.34;100.00;101767.91;5017157;28;61473;-71
2022/07/21 05:27:25;;;;;;;;;21.33;18.67;;;;;22.36;100.00;101766.03;4999660;28;46649;-73
2022/07/21 05:29:51;;;;;;;;;21.00;18.00;;;;;22.37;100.00;101769.63;5017545;28;45353;-72
2022/07/21 05:32:16;;;;;;;;;20.00;17.67;;;;;22.37;100.00;101765.16;5016871;28;54690;-72
2022/07/21 05:34:41;;;;;;;;;20.00;15.00;;;;;22.38;100.00;101768.72;5017352;28;45779;-74
2022/07/21 05:37:07;;;;;;;;;23.33;19.33;;;;;22.38;100.00;101760.66;5016513;28;64710;-71
2022/07/21 05:39:32;;;;;;;;;20.67;19.67;;;;;22.41;100.00;101772.22;5016868;28;57637;-72
2022/07/21 05:41:57;;;;;;;;;19.67;18.67;;;;;22.46;100.00;101772.09;5016992;28;45361;-71
2022/07/21 05:44:23;;;;;;;;;19.33;16.67;;;;;22.46;100.00;101770.28;5016518;28;62994;-71
2022/07/21 05:46:48;;;;;;;;;21.00;17.33;;;;;22.48;100.00;101770.28;5016656;28;45380;-72
2022/07/21 05:49:13;;;;;;;;;18.33;17.33;;;;;22.51;100.00;101774.69;5016796;28;52079;-71
2022/07/21 05:51:39;;;;;;;;;21.33;18.00;;;;;22.56;100.00;101779.03;5016234;28;57869;-72
2022/07/21 05:54:04;;;;;;;;;20.67;17.67;;;;;22.58;100.00;101779.00;5015632;28;67495;-72
2022/07/21 05:56:29;;;;;;;;;23.67;21.00;;;;;22.60;100.00;101779.88;5016734;28;45309;-72
2022/07/21 05:58:55;;;;;;;;;16.00;15.67;;;;;22.59;100.00;101783.50;5017300;28;45515;-73
2022/07/21 06:01:21;;;;;;;;;18.33;17.00;;;;;22.61;100.00;101781.63;5016939;28;45560;-73
2022/07/21 06:03:48;;;;;;;;;19.00;17.67;;;;;22.61;100.00;101784.31;4998581;28;63548;-72
2022/07/21 06:06:16;;;;;;;;;18.33;18.33;;;;;22.62;100.00;101784.28;5016802;28;45266;-71
2022/07/21 06:08:42;;;;;;;;;23.33;21.33;;;;;22.63;100.00;101786.03;5017305;28;45356;-72
2022/07/21 06:11:09;;;;;;;;;20.33;18.67;;;;;22.61;100.00;101787.03;4999170;28;45538;-72
2022/07/21 06:13:35;;;;;;;;;22.33;20.00;;;;;22.58;100.00;101789.78;5016816;28;46734;-71
2022/07/21 06:16:00;;;;;;;;;21.33;20.00;;;;;22.56;100.00;101791.63;5016324;28;45440;-73
2022/07/21 06:18:25;;;;;;;;;22.00;19.00;;;;;22.54;100.00;101788.97;5016772;28;45976;-72
2022/07/21 06:20:51;;;;;;;;;25.33;21.00;;;;;22.59;100.00;101789.75;5016924;28;45478;-71
2022/07/21 06:23:16;;;;;;;;;21.67;19.33;;;;;22.63;100.00;101787.84;4998864;28;51610;-71
2022/07/21 06:25:42;;;;;;;;;18.00;17.00;;;;;22.63;100.00;101793.25;5017253;28;45282;-72
2022/07/21 06:28:07;;;;;;;;;20.33;19.00;;;;;22.63;100.00;101782.47;5019035;28;50913;-74
2022/07/21 06:30:33;;;;;;;;;19.33;17.33;;;;;22.65;100.00;101794.09;5016739;28;49034;-71
2022/07/21 06:32:58;;;;;;;;;23.67;18.33;;;;;22.64;100.00;101789.66;5018773;28;45877;-71
2022/07/21 06:35:24;;;;;;;;;25.33;19.67;;;;;22.66;100.00;101798.56;5019799;28;45442;-71
2022/07/21 06:37:49;;;;;;;;;21.67;21.00;;;;;22.70;100.00;101797.56;5020091;28;45317;-71
2022/07/21 06:40:15;;;;;;;;;20.00;18.67;;;;;22.72;100.00;101795.72;5019465;28;55882;-72
2022/07/21 06:42:40;;;;;;;;;24.67;20.00;;;;;22.76;100.00;101792.03;5019700;28;46086;-73
2022/07/21 06:45:06;;;;;;;;;21.00;16.33;;;;;22.82;100.00;101799.97;5019702;28;45412;-72
2022/07/21 06:47:32;;;;;;;;;23.33;20.00;;;;;22.85;100.00;101802.59;5019654;28;45129;-71
2022/07/21 06:50:02;;;;;;;;;13.33;10.67;;;;;22.88;100.00;101797.16;5019905;28;45559;-72
2022/07/21 06:52:32;;;;;;;;;25.33;19.67;;;;;22.92;100.00;101798.84;5019685;28;46145;-71
2022/07/21 06:54:57;;;;;;;;;17.33;17.33;;;;;22.93;100.00;101806.00;5001193;28;45357;-71
2022/07/21 06:57:23;;;;;;;;;17.00;15.00;;;;;22.91;100.00;101797.09;5018722;28;45387;-73
2022/07/21 06:59:49;;;;;;;;;19.33;18.33;;;;;22.97;100.00;101796.94;5019938;28;45436;-72
2022/07/21 07:02:14;;;;;;;;;18.33;17.33;;;;;23.03;100.00;101800.41;5019011;28;64518;-72
2022/07/21 07:04:39;;;;;;;;;21.67;20.33;;;;;23.10;100.00;101805.56;5019629;28;45321;-72
2022/07/21 07:07:05;;;;;;;;;22.33;20.00;;;;;23.18;100.00;101808.97;5019849;28;45585;-74
2022/07/21 07:09:30;;;;;;;;;20.67;20.33;;;;;23.26;100.00;101808.75;5019687;28;45439;-72
2022/07/21 07:12:03;;;;;;;;;24.00;20.67;;;;;23.32;100.00;101808.59;5018481;28;66194;-72
2022/07/21 07:14:31;;;;;;;;;19.67;18.33;;;;;23.36;100.00;101821.06;5002735;28;45360;-72
2022/07/21 07:16:57;;;;;;;;;20.00;18.33;;;;;23.36;100.00;101818.38;5019367;28;45341;-72
2022/07/21 07:19:22;;;;;;;;;25.00;21.00;;;;;23.38;100.00;101819.22;5019279;28;45294;-72
2022/07/21 07:21:48;;;;;;;;;22.33;18.00;;;;;23.40;100.00;101820.06;5018678;28;57585;-71
2022/07/21 07:24:13;;;;;;;;;20.67;16.33;;;;;23.43;100.00;101822.66;5018649;28;63365;-72
2022/07/21 07:26:38;;;;;;;;;25.67;21.33;;;;;23.48;100.00;101827.94;5018929;28;56729;-74
2022/07/21 07:29:04;;;;;;;;;26.67;23.00;;;;;23.49;100.00;101825.22;5019575;28;45427;-72
2022/07/21 07:31:29;;;;;;;;;22.00;19.00;;;;;23.50;100.00;101820.72;5019047;28;52025;-73
2022/07/21 07:33:57;;;;;;;;;26.67;21.00;;;;;23.52;100.00;101811.66;5018631;28;50122;-73
2022/07/21 07:36:23;;;;;;;;;23.00;20.33;;;;;23.58;100.00;101820.50;5001992;28;45545;-73
2022/07/21 07:38:49;;;;;;;;;22.33;20.00;;;;;23.65;100.00;101824.81;5019179;28;45614;-72
2022/07/21 07:41:14;;;;;;;;;25.33;21.33;;;;;23.63;100.00;101819.47;5018926;28;46279;-73
2022/07/21 07:43:39;;;;;;;;;17.33;17.33;;;;;23.73;100.00;101828.19;5017535;28;62282;-73
2022/07/21 07:46:06;;;;;;;;;24.00;23.00;;;;;23.81;100.00;101831.59;5018290;28;54605;-72
2022/07/21 07:48:31;;;;;;;;;29.00;23.67;;;;;23.86;100.00;101832.31;5018927;28;45222;-72
2022/07/21 07:50:56;;;;;;;;;20.67;16.67;;;;;23.89;100.00;101834.03;5018754;28;46797;-71
2022/07/21 07:53:22;;;;;;;;;18.33;18.33;;;;;23.92;100.00;101840.25;5000525;28;45384;-72
2022/07/21 07:55:47;;;;;;;;;23.33;21.67;;;;;23.93;100.00;101831.22;5018156;28;56818;-72
2022/07/21 07:58:13;;;;;;;;;32.00;25.33;;;;;23.95;100.00;101832.06;5001001;28;45479;-71
2022/07/21 08:00:39;;;;;;;;;24.00;19.33;;;;;24.02;100.00;101839.06;5018633;28;46106;-72
2022/07/21 08:03:05;;;;;;;;;25.33;22.00;;;;;24.05;100.00;101830.84;5018523;28;45362;-72
2022/07/21 08:05:30;;;;;;;;;29.33;24.00;;;;;24.04;100.00;101829.09;5018809;28;45659;-71
2022/07/21 08:07:56;;;;;;;;;26.00;22.67;;;;;24.09;100.00;101836.19;5000987;28;45659;-72
2022/07/21 08:10:21;;;;;;;;;27.67;25.67;;;;;24.14;100.00;101839.63;5018606;28;47236;-72
2022/07/21 08:12:46;;;;;;;;;28.67;24.33;;;;;24.17;100.00;101837.69;4999941;28;56728;-72
2022/07/21 08:15:12;;;;;;;;;27.33;23.33;;;;;24.22;100.00;101835.75;5017867;28;56588;-72
2022/07/21 08:17:37;;;;;;;;;25.33;22.67;;;;;24.29;100.00;101845.47;5018499;28;45202;-71
2022/07/21 08:20:04;;;;;;;;;26.00;23.00;;;;;24.33;100.00;101846.22;5018230;28;46667;-72
2022/07/21 08:22:29;;;;;;;;;27.67;26.33;;;;;24.36;100.00;101842.59;5000887;28;45296;-72
2022/07/21 08:24:55;;;;;;;;;28.33;25.00;;;;;24.37;100.00;101844.38;5018702;28;45239;-72
2022/07/21 08:27:20;;;;;;;;;26.00;25.00;;;;;24.42;100.00;101847.81;5000724;28;45385;-72
2022/07/21 08:29:46;;;;;;;;;24.33;24.33;;;;;24.41;100.00;101852.34;4996666;28;63101;-73
2022/07/21 08:32:11;;;;;;;;;29.67;25.67;;;;;24.41;100.00;101851.44;5016196;28;45328;-71
2022/07/21 08:34:37;;;;;;;;;26.33;26.33;;;;;24.43;100.00;101860.38;5018618;28;45237;-72
2022/07/21 08:37:03;;;;;;;;;24.67;23.33;;;;;24.45;100.00;101866.59;5018343;28;45238;-72
2022/07/21 08:39:28;;;;;;;;;30.00;25.33;;;;;24.45;100.00;101853.09;5018127;28;45831;-72
2022/07/21 08:41:53;;;;;;;;;25.00;24.33;;;;;24.48;100.00;101847.63;5017752;28;45246;-72
2022/07/21 08:44:22;;;;;;;;;24.67;21.00;;;;;24.55;100.00;101863.59;5017687;28;57348;-72
2022/07/21 08:46:50;;;;;;;;;24.33;23.67;;;;;24.67;100.00;101858.75;5172702;22;46223;-72
2022/07/21 08:49:15;;;;;;;;;30.33;24.00;;;;;24.75;100.00;101851.28;5059981;28;45793;-72
2022/07/21 08:51:40;;;;;;;;;23.67;20.33;;;;;24.80;100.00;101854.72;5059803;28;45357;-72
2022/07/21 08:54:06;;;;;;;;;28.33;26.00;;;;;24.89;100.00;101851.72;5077531;28;58738;-72
2022/07/21 08:56:31;;;;;;;;;28.67;25.67;;;;;24.88;100.00;101858.06;5076732;28;45407;-71
2022/07/21 08:58:57;;;;;;;;;25.00;25.00;;;;;24.94;100.00;101848.88;5078323;28;45592;-71
2022/07/21 09:01:23;;;;;;;;;27.67;26.33;;;;;25.00;100.00;101856.78;5077462;28;57383;-72
2022/07/21 09:03:50;;;;;;;;;24.33;23.00;;;;;25.08;100.00;101852.03;5059938;28;45481;-72
2022/07/21 09:06:16;;;;;;;;;30.67;26.00;;;;;25.12;100.00;101853.69;5078280;28;45265;-72
2022/07/21 09:08:56;;;;;;;;;27.00;23.00;;;;;25.12;100.00;101855.53;5059847;28;46729;-74
2022/07/21 09:11:24;;;;;;;;;27.33;23.00;;;;;25.05;100.00;101850.28;5077648;28;45510;-71
2022/07/21 09:14:06;;;;;;;;;26.33;21.67;;;;;25.01;100.00;101859.41;5059767;28;45350;-72
2022/07/21 09:16:43;;;;;;;;;23.00;20.67;;;;;24.95;100.00;101854.22;5077839;28;45395;-72
2022/07/21 09:19:18;;;;;;;;;24.00;23.33;;;;;24.92;100.00;101858.84;5059864;28;46523;-72
2022/07/21 09:21:46;;;;;;;;;28.33;25.33;;;;;24.94;100.00;101854.28;5077647;28;45387;-72
2022/07/21 09:24:15;;;;;;;;;22.67;21.00;;;;;25.02;100.00;101858.47;5059862;28;45457;-72
2022/07/21 09:27:22;;;;;;;;;21.00;21.00;;;;;25.11;100.00;101859.16;5078286;28;45478;-71
2022/07/21 09:29:50;;;;;;;;;28.33;26.00;;;;;25.15;100.00;101863.53;4995353;28;45772;-72
2022/07/21 09:32:25;;;;;;;;;21.67;19.67;;;;;25.19;100.00;101860.66;5053032;28;45545;-72
2022/07/21 09:34:59;;;;;;;;;26.00;22.00;;;;;25.18;100.00;101867.00;5077779;28;45325;-72
2022/07/21 09:37:24;;;;;;;;;24.00;21.00;;;;;25.15;100.00;101863.53;5077804;28;45290;-71
2022/07/21 09:39:51;;;;;;;;;26.67;24.67;;;;;25.11;100.00;101864.56;5077305;28;46576;-73
2022/07/21 09:42:21;;;;;;;;;22.67;22.67;;;;;25.14;100.00;101864.44;5077249;28;45454;-72
2022/07/21 09:44:52;;;;;;;;;22.33;21.67;;;;;25.18;100.00;101864.28;5059391;28;45357;-72
2022/07/21 09:47:21;;;;;;;;;21.67;20.33;;;;;25.26;100.00;101864.06;5047366;28;45701;-72
2022/07/21 09:49:47;;;;;;;;;22.00;21.67;;;;;25.38;100.00;101862.75;5035575;28;46466;-72
2022/07/21 09:52:18;;;;;;;;;22.33;19.33;;;;;25.46;100.00;101858.84;5035673;28;45346;-71
2022/07/21 09:54:43;;;;;;;;;22.33;20.00;;;;;25.51;100.00;101847.84;5036686;28;45338;-72
2022/07/21 09:57:09;;;;;;;;;17.00;17.00;;;;;25.59;100.00;101851.19;5035407;28;50932;-72
2022/07/21 09:59:34;;;;;;;;;20.00;19.00;;;;;25.70;100.00;101853.50;5035671;28;45412;-72
2022/07/21 10:02:00;;;;;;;;;20.33;17.33;;;;;25.74;100.00;101847.06;5036103;28;64321;-72
2022/07/21 10:04:25;;;;;;;;;22.67;18.67;;;;;25.75;100.00;101852.44;5035753;28;45284;-72
2022/07/21 10:06:51;;;;;;;;;20.00;20.00;;;;;25.74;100.00;101855.16;5034752;28;58670;-72
2022/07/21 10:09:16;;;;;;;;;21.67;19.00;;;;;25.75;100.00;101848.84;5034709;28;63907;-71
2022/07/21 10:11:42;;;;;;;;;22.00;21.00;;;;;25.80;100.00;101841.44;5034636;28;62515;-72
2022/07/21 10:14:11;;;;;;;;;19.00;19.00;;;;;25.89;100.00;101842.91;5036994;28;45185;-72
2022/07/21 10:16:37;;;;;;;;;19.67;19.00;;;;;25.96;99.53;101839.06;5036552;28;45482;-72
2022/07/21 10:19:07;;;;;;;;;18.33;17.33;;;;;26.00;99.28;101840.72;5034952;28;68760;-71
2022/07/21 10:21:46;;;;;;;;;15.00;15.00;;;;;26.01;99.31;101843.38;5036707;28;45224;-71
2022/07/21 10:24:12;;;;;;;;;23.00;19.00;;;;;25.95;98.60;101840.00;5036755;28;45401;-71
2022/07/21 10:26:39;;;;;;;;;22.00;19.00;;;;;25.94;98.53;101840.94;5035748;28;45291;-74
2022/07/21 10:29:04;;;;;;;;;16.67;16.67;;;;;25.92;98.96;101837.41;5036393;28;46768;-72
2022/07/21 10:31:30;;;;;;;;;17.00;16.00;;;;;25.96;98.38;101845.34;5036561;28;45355;-72
2022/07/21 10:33:58;;;;;;;;;18.00;18.00;;;;;25.93;98.46;101840.03;5036695;28;45142;-74
2022/07/21 10:36:26;;;;;;;;;17.33;16.00;;;;;25.88;98.58;101849.28;5036566;28;45335;-71
2022/07/21 10:39:15;;;;;;;;;19.33;19.00;;;;;25.91;98.94;101841.94;5036279;28;45684;-72
2022/07/21 10:41:42;;;;;;;;;19.00;16.33;;;;;25.91;97.48;101847.34;5036104;28;45641;-72
2022/07/21 10:44:32;;;;;;;;;19.00;16.33;;;;;25.85;97.16;101848.47;5036491;28;45260;-72
2022/07/21 10:47:04;;;;;;;;;19.00;17.33;;;;;25.82;96.82;101847.69;5047200;28;45665;-74
2022/07/21 10:49:45;;;;;;;;;17.00;17.00;;;;;25.83;97.17;101852.16;5058391;28;45332;-71
2022/07/21 10:52:35;;;;;;;;;19.00;17.00;;;;;25.94;97.63;101844.53;5076506;28;45348;-72
2022/07/21 10:55:24;;;;;;;;;21.33;19.33;;;;;26.07;97.56;101843.13;5076287;28;45311;-72
2022/07/21 10:58:14;;;;;;;;;18.00;16.67;;;;;26.21;97.13;101849.88;5076523;28;45288;-71
2022/07/21 11:00:49;;;;;;;;;14.33;14.33;;;;;26.30;96.67;101847.66;5076277;28;45999;-72
2022/07/21 11:03:38;;;;;;;;;16.33;15.00;;;;;26.38;95.27;101850.97;5076609;28;45413;-75
2022/07/21 11:06:06;;;;;;;;;19.33;15.00;;;;;26.40;94.89;101842.78;5076373;28;45394;-72
2022/07/21 11:08:47;;;;;;;;;17.33;16.33;;;;;26.39;93.70;101838.31;5076815;28;45722;-72
2022/07/21 11:11:16;;;;;;;;;19.00;18.67;;;;;26.43;93.18;101845.41;5075751;28;46053;-72